createdAt,value
2018-09-08T00:02:23.740Z,22.32
2018-09-08T00:04:52.289Z,23.67
2018-09-08T00:07:26.102Z,23.85
2018-09-08T00:09:54.609Z,22.00
2018-09-08T00:12:23.116Z,21.23
2018-09-08T00:14:50.823Z,18.52
2018-09-08T00:17:24.529Z,24.63
2018-09-08T00:19:58.321Z,21.07
2018-09-08T00:22:32.182Z,21.85
2018-09-08T00:25:05.960Z,20.32
2018-09-08T00:27:39.772Z,21.35
2018-09-08T00:30:09.229Z,19.05
2018-09-08T00:32:39.338Z,21.55
2018-09-08T00:35:07.894Z,24.52
2018-09-08T00:37:36.406Z,24.27
2018-09-08T00:40:05.090Z,25.88
2018-09-08T00:42:33.614Z,21.05
2018-09-08T00:45:02.138Z,20.97
2018-09-08T00:47:30.725Z,19.73
2018-09-08T00:49:59.262Z,22.00
2018-09-08T00:52:27.795Z,23.22
2018-09-08T00:54:56.374Z,21.57
2018-09-08T00:57:24.894Z,18.98
2018-09-08T00:59:53.437Z,24.45
2018-09-08T01:02:21.986Z,23.55
2018-09-08T01:04:50.574Z,23.32
2018-09-08T01:07:24.364Z,26.20
2018-09-08T01:09:52.924Z,23.22
2018-09-08T01:12:21.449Z,24.75
2018-09-08T01:14:49.967Z,24.82
2018-09-08T01:17:18.592Z,21.02
2018-09-08T01:19:47.119Z,22.05
2018-09-08T01:22:15.728Z,23.73
2018-09-08T01:24:44.421Z,21.70
2018-09-08T01:27:12.961Z,20.72
2018-09-08T01:29:41.478Z,19.77
2018-09-08T01:32:10.008Z,19.92
2018-09-08T01:34:38.532Z,18.77
2018-09-08T01:37:07.064Z,21.30
2018-09-08T01:39:35.589Z,23.62
2018-09-08T01:42:04.117Z,25.62
2018-09-08T01:44:32.651Z,22.58
2018-09-08T01:47:01.220Z,22.70
2018-09-08T01:49:29.754Z,23.52
2018-09-08T01:51:58.267Z,23.92
2018-09-08T01:54:28.827Z,24.23
2018-09-08T01:56:57.371Z,25.32
2018-09-08T01:59:25.943Z,22.30
2018-09-08T02:01:54.480Z,27.80
2018-09-08T02:04:23.014Z,22.50
2018-09-08T02:06:51.563Z,19.00
2018-09-08T02:09:20.083Z,24.95
2018-09-08T02:11:48.669Z,25.43
2018-09-08T02:14:17.230Z,24.75
2018-09-08T02:16:45.787Z,24.43
2018-09-08T02:19:14.414Z,28.35
2018-09-08T02:21:42.952Z,23.83
2018-09-08T02:24:11.480Z,21.20
2018-09-08T02:26:40.028Z,22.62
2018-09-08T02:29:08.564Z,18.73
2018-09-08T02:31:37.118Z,26.33
2018-09-08T02:34:05.674Z,21.33
2018-09-08T02:36:34.211Z,22.25
2018-09-08T02:39:02.764Z,20.20
2018-09-08T02:41:31.289Z,25.62
2018-09-08T02:43:59.803Z,22.77
2018-09-08T02:46:28.356Z,21.73
2018-09-08T02:48:56.890Z,16.37
2018-09-08T02:51:24.313Z,17.55
2018-09-08T02:53:51.744Z,22.13
2018-09-08T02:56:19.117Z,19.92
2018-09-08T02:58:46.548Z,19.87
2018-09-08T03:01:13.947Z,21.42
2018-09-08T03:03:41.329Z,19.32
2018-09-08T03:06:08.724Z,20.82
2018-09-08T03:08:36.114Z,27.00
2018-09-08T03:11:03.519Z,21.37
2018-09-08T03:13:30.906Z,24.05
2018-09-08T03:15:58.296Z,19.87
2018-09-08T03:18:25.681Z,21.15
2018-09-08T03:20:53.106Z,19.02
2018-09-08T03:23:20.484Z,19.30
2018-09-08T03:25:47.860Z,23.90
2018-09-08T03:28:15.228Z,24.00
2018-09-08T03:30:42.604Z,24.20
2018-09-08T03:33:09.994Z,22.60
2018-09-08T03:35:37.438Z,23.75
2018-09-08T03:38:04.872Z,21.37
2018-09-08T03:40:32.248Z,19.02
2018-09-08T03:42:59.624Z,21.17
2018-09-08T03:45:27.006Z,25.57
2018-09-08T03:47:54.376Z,19.87
2018-09-08T03:50:21.758Z,18.62
2018-09-08T03:52:49.183Z,20.97
2018-09-08T03:55:16.563Z,20.17
2018-09-08T03:57:43.939Z,21.50
2018-09-08T04:00:11.334Z,18.98
2018-09-08T04:02:39.856Z,19.23
2018-09-08T04:05:08.381Z,23.27
2018-09-08T04:07:36.893Z,21.48
2018-09-08T04:10:05.538Z,18.32
2018-09-08T04:12:34.068Z,25.95
2018-09-08T04:15:02.626Z,25.50
2018-09-08T04:17:31.217Z,26.70
2018-09-08T04:19:59.722Z,21.00
2018-09-08T04:22:32.898Z,26.55
2018-09-08T04:25:01.481Z,30.35
2018-09-08T04:27:30.019Z,26.05
2018-09-08T04:29:58.647Z,27.73
2018-09-08T04:32:27.187Z,23.52
2018-09-08T04:34:55.738Z,24.37
2018-09-08T04:37:24.328Z,26.95
2018-09-08T04:39:52.850Z,30.15
2018-09-08T04:42:21.444Z,33.33
2018-09-08T04:44:50.270Z,33.10
2018-09-08T04:47:18.840Z,28.75
2018-09-08T04:49:47.392Z,36.05
2018-09-08T04:52:15.900Z,37.30
2018-09-08T04:54:44.424Z,32.48
2018-09-08T04:57:12.982Z,35.50
2018-09-08T04:59:41.496Z,35.10
2018-09-08T05:02:10.028Z,39.08
2018-09-08T05:04:38.576Z,40.48
2018-09-08T05:07:07.244Z,42.00
2018-09-08T05:09:35.750Z,39.98
2018-09-08T05:12:04.506Z,42.58
2018-09-08T05:14:34.875Z,35.80
2018-09-08T05:17:03.520Z,41.42
2018-09-08T05:19:32.055Z,39.90
2018-09-08T05:22:00.634Z,38.20
2018-09-08T05:24:29.200Z,39.90
2018-09-08T05:26:57.716Z,43.20
2018-09-08T05:29:26.260Z,35.75
2018-09-08T05:31:54.772Z,44.67
2018-09-08T05:34:23.299Z,42.67
2018-09-08T05:36:51.821Z,37.98
2018-09-08T05:39:20.345Z,40.23
2018-09-08T05:41:48.886Z,41.65
2018-09-08T05:44:17.451Z,38.53
2018-09-08T05:46:46.026Z,40.30
2018-09-08T05:49:14.532Z,42.55
2018-09-08T05:51:43.060Z,46.48
2018-09-08T05:54:11.589Z,37.42
2018-09-08T05:56:40.176Z,38.95
2018-09-08T05:59:08.744Z,34.75
2018-09-08T06:01:37.449Z,41.35
2018-09-08T06:04:05.993Z,35.17
2018-09-08T06:06:34.497Z,35.03
2018-09-08T06:09:03.139Z,35.68
2018-09-08T06:11:31.658Z,37.45
2018-09-08T06:14:00.170Z,36.25
2018-09-08T06:16:28.672Z,35.60
2018-09-08T06:18:57.291Z,35.05
2018-09-08T06:21:25.835Z,35.48
2018-09-08T06:23:54.427Z,39.05
2018-09-08T06:26:22.984Z,29.70
2018-09-08T06:28:51.604Z,32.10
2018-09-08T06:31:20.152Z,28.38
2018-09-08T06:33:48.731Z,32.58
2018-09-08T06:36:17.244Z,36.28
2018-09-08T06:38:45.856Z,40.23
2018-09-08T06:41:14.376Z,40.78
2018-09-08T06:43:42.944Z,37.05
2018-09-08T06:46:11.475Z,29.90
2018-09-08T06:48:40.035Z,29.23
2018-09-08T06:51:08.661Z,29.20
2018-09-08T06:53:37.205Z,31.30
2018-09-08T06:56:06.270Z,29.07
2018-09-08T06:58:34.849Z,30.68
2018-09-08T07:01:03.439Z,30.10
2018-09-08T07:03:32.076Z,29.60
2018-09-08T07:06:00.628Z,28.02
2018-09-08T07:08:29.166Z,32.17
2018-09-08T07:10:57.697Z,27.25
2018-09-08T07:13:26.227Z,30.25
2018-09-08T07:15:54.804Z,30.50
2018-09-08T07:18:23.316Z,33.48
2018-09-08T07:20:51.869Z,27.22
2018-09-08T07:23:20.377Z,29.42
2018-09-08T07:25:48.911Z,28.95
2018-09-08T07:28:17.438Z,34.27
2018-09-08T07:30:45.981Z,31.62
2018-09-08T07:33:14.540Z,28.87
2018-09-08T07:35:43.052Z,30.27
2018-09-08T07:38:11.609Z,36.90
2018-09-08T07:40:40.270Z,27.55
2018-09-08T07:43:08.800Z,28.92
2018-09-08T07:45:37.338Z,31.70
2018-09-08T07:48:06.060Z,34.92
2018-09-08T07:50:34.576Z,31.77
2018-09-08T07:53:03.101Z,27.90
2018-09-08T07:55:31.751Z,30.43
2018-09-08T07:58:00.530Z,26.82
2018-09-08T08:00:29.191Z,27.82
2018-09-08T08:02:57.752Z,24.15
2018-09-08T08:05:26.281Z,24.92
2018-09-08T08:07:54.831Z,28.47
2018-09-08T08:10:23.402Z,24.37
2018-09-08T08:12:52.039Z,25.02
2018-09-08T08:15:21.209Z,24.37
2018-09-08T08:17:49.761Z,24.30
2018-09-08T08:20:18.326Z,23.32
2018-09-08T08:22:46.948Z,20.82
2018-09-08T08:25:15.499Z,22.60
2018-09-08T08:27:44.124Z,22.62
2018-09-08T08:30:12.635Z,20.90
2018-09-08T08:32:41.156Z,20.00
2018-09-08T08:35:09.718Z,17.35
2018-09-08T08:37:38.369Z,21.37
2018-09-08T08:40:07.139Z,14.38
2018-09-08T08:42:35.717Z,15.50
2018-09-08T08:45:04.326Z,15.32
2018-09-08T08:47:32.884Z,13.88
2018-09-08T08:50:12.729Z,17.67
2018-09-08T08:52:52.854Z,13.23
2018-09-08T08:55:21.396Z,13.63
2018-09-08T08:57:49.952Z,14.20
2018-09-08T09:00:18.489Z,19.07
2018-09-08T09:02:47.023Z,11.88
2018-09-08T09:05:15.565Z,12.50
2018-09-08T09:07:44.111Z,9.10
2018-09-08T09:10:12.683Z,12.20
2018-09-08T09:12:41.215Z,7.73
2018-09-08T09:15:10.186Z,9.40
2018-09-08T09:17:38.382Z,7.77
2018-09-08T09:20:18.204Z,7.10
2018-09-08T09:22:57.924Z,9.20
2018-09-08T09:25:26.489Z,14.23
2018-09-08T09:27:55.014Z,6.10
2018-09-08T09:30:23.579Z,8.73
2018-09-08T09:32:52.139Z,9.25
2018-09-08T09:35:21.898Z,7.70
2018-09-08T09:37:50.428Z,6.80
2018-09-08T09:40:20.321Z,7.00
2018-09-08T09:42:48.856Z,5.40
2018-09-08T09:45:17.404Z,6.83
2018-09-08T09:47:45.971Z,11.80
2018-09-08T09:50:14.519Z,4.00
2018-09-08T09:52:43.076Z,5.43
2018-09-08T09:55:11.654Z,8.40
2018-09-08T09:57:40.191Z,9.00
2018-09-08T10:00:09.851Z,12.60
2018-09-08T10:02:45.547Z,6.17
2018-09-08T10:05:19.628Z,6.40
2018-09-08T10:07:48.781Z,5.90
2018-09-08T10:10:21.672Z,5.70
2018-09-08T10:12:50.204Z,6.20
2018-09-08T10:15:18.760Z,5.83
2018-09-08T10:17:47.426Z,6.40
2018-09-08T10:20:17.528Z,10.53
2018-09-08T10:22:46.118Z,5.77
2018-09-08T10:25:16.099Z,4.70
2018-09-08T10:27:45.394Z,6.23
2018-09-08T10:30:14.483Z,5.53
2018-09-08T10:32:44.030Z,7.60
2018-09-08T10:35:12.800Z,5.03
2018-09-08T10:37:41.583Z,5.30
2018-09-08T10:40:10.989Z,7.77
2018-09-08T10:42:39.508Z,4.90
2018-09-08T10:45:08.254Z,6.63
2018-09-08T10:47:36.906Z,5.93
2018-09-08T10:50:06.221Z,7.33
2018-09-08T10:52:37.284Z,5.60
2018-09-08T10:55:05.841Z,4.97
2018-09-08T10:57:34.413Z,4.90
2018-09-08T11:00:03.784Z,5.33
2018-09-08T11:02:32.803Z,4.17
2018-09-08T11:05:01.778Z,5.33
2018-09-08T11:07:30.815Z,4.20
2018-09-08T11:09:59.525Z,4.97
2018-09-08T11:12:28.108Z,8.83
2018-09-08T11:14:56.705Z,5.17
2018-09-08T11:17:25.472Z,4.20
2018-09-08T11:19:54.024Z,4.40
2018-09-08T11:22:23.586Z,4.97
2018-09-08T11:24:52.223Z,4.60
2018-09-08T11:27:20.763Z,3.30
2018-09-08T11:29:49.397Z,3.53
2018-09-08T11:32:17.948Z,3.85
2018-09-08T11:34:46.512Z,13.23
2018-09-08T11:37:15.031Z,7.00
2018-09-08T11:39:43.587Z,5.00
2018-09-08T11:42:12.184Z,3.50
2018-09-08T11:44:40.763Z,2.97
2018-09-08T11:47:09.317Z,4.73
2018-09-08T11:49:37.892Z,2.17
2018-09-08T11:52:06.470Z,3.27
2018-09-08T11:54:35.031Z,7.83
2018-09-08T11:57:03.613Z,2.43
2018-09-08T11:59:32.261Z,2.40
2018-09-08T12:02:00.886Z,3.97
2018-09-08T12:04:30.351Z,2.63
2018-09-08T12:06:59.010Z,2.90
2018-09-08T12:09:27.550Z,3.77
2018-09-08T12:11:56.090Z,4.30
2018-09-08T12:14:24.704Z,2.50
2018-09-08T12:16:53.260Z,4.13
2018-09-08T12:19:21.829Z,2.50
2018-09-08T12:21:50.343Z,14.23
2018-09-08T12:24:18.855Z,2.77
2018-09-08T12:26:47.378Z,6.70
2018-09-08T12:29:15.877Z,6.47
2018-09-08T12:31:44.377Z,4.00
2018-09-08T12:34:12.868Z,3.00
2018-09-08T12:36:41.389Z,2.00
2018-09-08T12:39:10.226Z,4.90
2018-09-08T12:41:38.732Z,4.40
2018-09-08T12:44:07.239Z,3.60
2018-09-08T12:46:35.752Z,5.37
2018-09-08T12:49:04.252Z,2.60
2018-09-08T12:51:32.829Z,2.60
2018-09-08T12:54:01.361Z,2.30
2018-09-08T12:56:29.906Z,3.07
2018-09-08T12:58:58.424Z,3.90
2018-09-08T13:01:26.966Z,2.10
2018-09-08T13:03:55.490Z,2.53
2018-09-08T13:06:23.996Z,1.47
2018-09-08T13:08:52.492Z,3.90
2018-09-08T13:11:21.008Z,2.23
2018-09-08T13:13:49.537Z,3.07
2018-09-08T13:16:18.058Z,2.17
2018-09-08T13:18:46.567Z,2.60
2018-09-08T13:21:15.076Z,4.70
2018-09-08T13:23:43.604Z,2.93
2018-09-08T13:26:12.092Z,2.27
2018-09-08T13:28:40.650Z,5.53
2018-09-08T13:31:09.165Z,4.80
2018-09-08T13:33:37.668Z,3.87
2018-09-08T13:36:06.193Z,2.63
2018-09-08T13:38:34.731Z,2.50
2018-09-08T13:41:03.312Z,2.30
2018-09-08T13:43:31.924Z,3.30
2018-09-08T13:46:00.459Z,2.13
2018-09-08T13:48:29.076Z,3.63
2018-09-08T13:50:57.656Z,1.70
2018-09-08T13:53:26.224Z,3.03
2018-09-08T13:55:54.760Z,2.17
2018-09-08T13:58:23.291Z,3.80
2018-09-08T14:00:51.890Z,2.47
2018-09-08T14:03:20.489Z,5.50
2018-09-08T14:05:49.000Z,3.70
2018-09-08T14:08:17.844Z,3.43
2018-09-08T14:10:47.241Z,3.33
2018-09-08T14:13:15.872Z,2.37
2018-09-08T14:15:44.471Z,2.43
2018-09-08T14:18:13.001Z,3.20
2018-09-08T14:20:41.580Z,2.00
2018-09-08T14:23:10.122Z,1.80
2018-09-08T14:25:38.658Z,1.70
2018-09-08T14:28:08.356Z,6.77
2018-09-08T14:30:36.872Z,2.37
2018-09-08T14:33:05.462Z,2.37
2018-09-08T14:35:34.128Z,2.37
2018-09-08T14:38:02.686Z,4.57
2018-09-08T14:40:31.226Z,3.73
2018-09-08T14:42:59.860Z,2.50
2018-09-08T14:45:28.363Z,3.50
2018-09-08T14:47:57.280Z,2.07
2018-09-08T14:50:27.222Z,2.27
2018-09-08T14:52:55.751Z,2.43
2018-09-08T14:55:25.274Z,2.10
2018-09-08T14:57:53.814Z,1.77
2018-09-08T15:00:22.385Z,2.23
2018-09-08T15:02:51.016Z,2.80
2018-09-08T15:05:19.537Z,1.93
2018-09-08T15:07:48.067Z,2.37
2018-09-08T15:10:16.677Z,1.97
2018-09-08T15:12:45.185Z,2.30
2018-09-08T15:15:13.695Z,2.20
2018-09-08T15:17:42.805Z,2.60
2018-09-08T15:20:11.418Z,1.50
2018-09-08T15:22:39.915Z,2.13
2018-09-08T15:25:08.434Z,1.83
2018-09-08T15:27:37.001Z,2.53
2018-09-08T15:30:05.563Z,1.73
2018-09-08T15:32:34.064Z,1.70
2018-09-08T15:35:02.598Z,1.70
2018-09-08T15:37:31.164Z,2.20
2018-09-08T15:39:59.694Z,2.50
2018-09-08T15:42:28.258Z,2.07
2018-09-08T15:44:56.828Z,1.87
2018-09-08T15:47:25.363Z,2.03
2018-09-08T15:49:53.906Z,1.90
2018-09-08T15:52:22.415Z,2.23
2018-09-08T15:54:50.925Z,2.30
2018-09-08T15:57:19.452Z,1.57
2018-09-08T15:59:48.158Z,3.50
2018-09-08T16:02:16.677Z,1.80
2018-09-08T16:04:45.265Z,3.43
2018-09-08T16:07:13.793Z,1.60
2018-09-08T16:09:42.332Z,1.73
2018-09-08T16:12:10.881Z,2.40
2018-09-08T16:14:39.423Z,3.80
2018-09-08T16:17:08.160Z,2.10
2018-09-08T16:19:36.692Z,3.40
2018-09-08T16:22:05.277Z,2.50
2018-09-08T16:24:33.808Z,2.70
2018-09-08T16:27:02.406Z,1.87
2018-09-08T16:29:30.989Z,4.17
2018-09-08T16:31:59.485Z,2.57
2018-09-08T16:34:28.023Z,4.27
2018-09-08T16:36:56.563Z,3.13
2018-09-08T16:39:25.110Z,2.70
2018-09-08T16:41:53.631Z,3.47
2018-09-08T16:44:22.143Z,4.17
2018-09-08T16:46:50.676Z,9.77
2018-09-08T16:49:20.139Z,4.50
2018-09-08T16:51:48.840Z,4.97
2018-09-08T16:54:17.418Z,2.43
2018-09-08T16:56:46.049Z,2.80
2018-09-08T16:59:14.674Z,2.57
2018-09-08T17:01:43.205Z,2.00
2018-09-08T17:04:11.918Z,2.00
2018-09-08T17:06:40.486Z,2.20
2018-09-08T17:09:09.220Z,1.73
2018-09-08T17:11:38.291Z,2.00
2018-09-08T17:14:06.886Z,6.07
2018-09-08T17:16:35.478Z,2.43
2018-09-08T17:19:04.131Z,6.00
2018-09-08T17:21:32.698Z,7.10
2018-09-08T17:24:01.206Z,5.20
2018-09-08T17:26:29.766Z,4.00
2018-09-08T17:28:58.277Z,3.37
2018-09-08T17:31:26.811Z,2.77
2018-09-08T17:33:55.382Z,2.70
2018-09-08T17:36:23.928Z,4.10
2018-09-08T17:38:52.519Z,4.70
2018-09-08T17:41:21.048Z,5.10
2018-09-08T17:43:49.688Z,5.47
2018-09-08T17:46:18.233Z,15.90
2018-09-08T17:48:46.826Z,6.90
2018-09-08T17:51:15.431Z,14.97
2018-09-08T17:53:43.989Z,5.70
2018-09-08T17:56:12.526Z,3.95
2018-09-08T17:58:41.092Z,3.53
2018-09-08T18:01:09.633Z,6.70
2018-09-08T18:03:38.318Z,6.53
2018-09-08T18:06:06.883Z,10.60
2018-09-08T18:08:35.401Z,3.10
2018-09-08T18:11:03.946Z,4.00
2018-09-08T18:13:32.490Z,4.00
2018-09-08T18:16:01.087Z,5.83
2018-09-08T18:18:29.607Z,5.80
2018-09-08T18:20:58.276Z,9.93
2018-09-08T18:23:26.856Z,4.77
2018-09-08T18:25:55.442Z,10.67
2018-09-08T18:28:24.008Z,3.62
2018-09-08T18:30:52.631Z,8.48
2018-09-08T18:33:21.221Z,8.50
2018-09-08T18:35:52.214Z,4.40
2018-09-08T18:38:21.813Z,3.47
2018-09-08T18:40:50.523Z,3.40
2018-09-08T18:43:19.304Z,4.23
2018-09-08T18:45:48.008Z,4.33
2018-09-08T18:48:16.723Z,4.62
2018-09-08T18:50:45.298Z,4.20
2018-09-08T18:53:14.612Z,4.33
2018-09-08T18:55:43.345Z,5.50
2018-09-08T18:58:12.029Z,6.75
2018-09-08T19:00:40.942Z,6.83
2018-09-08T19:03:09.552Z,6.45
2018-09-08T19:05:38.173Z,6.17
2018-09-08T19:08:06.766Z,8.85
2018-09-08T19:10:35.847Z,9.68
2018-09-08T19:13:05.021Z,6.42
2018-09-08T19:15:34.618Z,10.00
2018-09-08T19:18:03.200Z,9.38
2018-09-08T19:20:37.508Z,11.38
2018-09-08T19:23:06.223Z,10.72
2018-09-08T19:25:35.199Z,11.10
2018-09-08T19:28:03.776Z,15.32
2018-09-08T19:30:32.352Z,15.25
2018-09-08T19:33:00.931Z,11.33
2018-09-08T19:35:34.947Z,10.43
2018-09-08T19:38:03.555Z,11.73
2018-09-08T19:40:37.548Z,15.98
2018-09-08T19:43:06.237Z,18.32
2018-09-08T19:45:34.991Z,15.30
2018-09-08T19:48:05.779Z,38.20
2018-09-08T19:50:34.535Z,42.20
2018-09-08T19:53:08.363Z,23.92
2018-09-08T19:55:36.962Z,15.90
2018-09-08T19:58:10.825Z,16.55
2018-09-08T20:00:39.505Z,17.23
2018-09-08T20:03:08.101Z,17.73
2018-09-08T20:05:36.699Z,22.07
2018-09-08T20:08:05.264Z,29.20
2018-09-08T20:10:33.867Z,25.45
2018-09-08T20:13:02.439Z,24.05
2018-09-08T20:15:30.984Z,20.90
2018-09-08T20:17:59.528Z,20.77
2018-09-08T20:20:38.587Z,10.25
2018-09-08T20:23:07.165Z,14.60
2018-09-08T20:25:35.754Z,33.50
2018-09-08T20:28:04.302Z,15.45
2018-09-08T20:30:32.821Z,21.55
2018-09-08T20:33:01.344Z,26.10
2018-09-08T20:35:29.897Z,25.30
2018-09-08T20:37:58.472Z,22.25
2018-09-08T20:40:27.019Z,17.65
2018-09-08T20:42:55.604Z,15.23
2018-09-08T20:45:24.159Z,16.62
2018-09-08T20:47:52.810Z,16.02
2018-09-08T20:50:21.352Z,26.82
2018-09-08T20:52:49.834Z,29.23
2018-09-08T20:55:18.513Z,24.47
2018-09-08T20:57:47.132Z,17.12
2018-09-08T21:00:15.703Z,60.20
2018-09-08T21:02:44.234Z,97.25
2018-09-08T21:05:12.779Z,78.55
2018-09-08T21:07:41.324Z,41.60
2018-09-08T21:10:09.889Z,52.20
2018-09-08T21:12:38.436Z,39.23
2018-09-08T21:15:07.536Z,78.40
2018-09-08T21:17:36.076Z,23.32
2018-09-08T21:20:04.644Z,14.95
2018-09-08T21:22:33.181Z,14.40
2018-09-08T21:25:01.717Z,20.17
2018-09-08T21:27:30.246Z,21.40
2018-09-08T21:29:58.812Z,27.60
2018-09-08T21:32:27.518Z,29.98
2018-09-08T21:34:56.047Z,15.18
2018-09-08T21:37:24.584Z,26.48
2018-09-08T21:39:53.164Z,31.35
2018-09-08T21:42:21.701Z,22.25
2018-09-08T21:44:50.314Z,18.75
2018-09-08T21:47:18.924Z,19.73
2018-09-08T21:49:47.456Z,27.90
2018-09-08T21:52:16.168Z,22.95
2018-09-08T21:54:44.710Z,18.27
2018-09-08T21:57:13.266Z,17.55
2018-09-08T21:59:41.818Z,17.77
2018-09-08T22:02:10.350Z,11.70
2018-09-08T22:04:38.880Z,13.20
2018-09-08T22:07:07.421Z,5.55
2018-09-08T22:09:35.982Z,7.50
2018-09-08T22:12:05.177Z,6.03
2018-09-08T22:14:33.712Z,5.30
2018-09-08T22:17:02.249Z,5.10
2018-09-08T22:19:30.805Z,5.65
2018-09-08T22:21:59.362Z,6.90
2018-09-08T22:24:27.888Z,5.55
2018-09-08T22:26:56.431Z,5.05
2018-09-08T22:29:25.008Z,5.30
2018-09-08T22:31:53.558Z,5.53
2018-09-08T22:34:22.100Z,8.45
2018-09-08T22:36:50.630Z,7.70
2018-09-08T22:39:19.169Z,7.78
2018-09-08T22:41:47.702Z,5.10
2018-09-08T22:44:16.248Z,5.12
2018-09-08T22:46:44.769Z,6.30
2018-09-08T22:49:13.308Z,7.83
2018-09-08T22:51:41.842Z,7.03
2018-09-08T22:54:10.404Z,7.03
2018-09-08T22:56:38.952Z,8.88
2018-09-08T22:59:07.520Z,6.15
2018-09-08T23:01:36.057Z,6.80
2018-09-08T23:04:04.614Z,5.35
2018-09-08T23:06:33.144Z,5.20
2018-09-08T23:09:01.697Z,7.25
2018-09-08T23:11:30.204Z,5.58
2018-09-08T23:13:58.747Z,5.08
2018-09-08T23:16:27.320Z,4.80
2018-09-08T23:18:55.844Z,6.85
2018-09-08T23:21:24.366Z,5.47
2018-09-08T23:23:52.894Z,5.42
2018-09-08T23:26:21.428Z,8.20
2018-09-08T23:28:50.090Z,5.33
2018-09-08T23:31:18.602Z,5.75
2018-09-08T23:33:47.163Z,6.67
2018-09-08T23:36:15.680Z,7.40
2018-09-08T23:38:44.200Z,6.53
2018-09-08T23:41:12.736Z,5.60
2018-09-08T23:43:41.292Z,6.92
2018-09-08T23:46:09.909Z,9.38
2018-09-08T23:48:38.439Z,8.28
2018-09-08T23:51:07.363Z,6.95
2018-09-08T23:53:35.893Z,7.22
2018-09-08T23:56:04.472Z,7.72
2018-09-08T23:58:32.974Z,6.95
